Time;durP1;ratioP1;P1;durP2;ratioP2;P2;SDS_P1;SDS_P2;PMS_P1;PMS_P2;Temp;Humidity;BMP_temperature;BMP_pressure;BME280_temperature;BME280_humidity;BME280_pressure;Samples;Min_cycle;Max_cycle;Signal;HPM_P1;HPM_P2
2023/03/20 00:02:02;;;;;;;18.98;16.02;;;;;;;9.36;84.45;101862.50;5115860;27;20030;-56
2023/03/20 00:04:30;;;;;;;21.98;16.23;;;;;;;9.27;85.08;101874.34;5131803;27;20366;-57
2023/03/20 00:06:55;;;;;;;20.70;16.92;;;;;;;9.13;84.95;101844.84;5130694;27;20030;-57
2023/03/20 00:09:21;;;;;;;20.67;17.02;;;;;;;9.16;85.21;101871.25;5115974;27;20027;-56
2023/03/20 00:11:49;;;;;;;19.95;16.88;;;;;;;9.19;85.12;101849.06;5145033;27;20023;-57
2023/03/20 00:14:17;;;;;;;19.52;16.55;;;;;;;9.23;84.53;101864.78;5154909;27;20037;-56
2023/03/20 00:16:45;;;;;;;17.38;15.43;;;;;;;9.24;84.11;101866.53;5140917;27;20492;-56
2023/03/20 00:19:29;;;;;;;21.80;17.00;;;;;;;9.24;84.96;101871.81;5133334;27;20042;-56
2023/03/20 00:21:56;;;;;;;21.02;16.88;;;;;;;9.21;84.35;101865.78;5112727;27;20046;-56
2023/03/20 00:24:22;;;;;;;22.08;17.63;;;;;;;9.15;84.67;101868.66;5133823;27;20027;-56
2023/03/20 00:26:52;;;;;;;21.60;16.60;;;;;;;9.15;84.62;101864.25;5134428;27;20019;-56
2023/03/20 00:29:26;;;;;;;23.05;18.05;;;;;;;9.15;84.53;101864.25;5129475;27;20035;-57
2023/03/20 00:31:52;;;;;;;22.30;16.75;;;;;;;8.97;84.81;101846.38;5101411;28;20039;-56
2023/03/20 00:34:21;;;;;;;20.77;16.08;;;;;;;8.96;84.93;101839.38;5101994;27;20092;-57
2023/03/20 00:36:49;;;;;;;21.30;16.48;;;;;;;9.02;84.59;101841.78;5131627;27;20019;-57
2023/03/20 00:39:17;;;;;;;20.75;17.05;;;;;;;8.86;84.93;101834.44;5132665;27;21690;-57
2023/03/20 00:41:54;;;;;;;18.75;16.05;;;;;;;8.78;84.72;101843.63;5112015;27;20046;-57
2023/03/20 00:44:39;;;;;;;21.35;16.65;;;;;;;8.80;84.59;101832.03;5128885;27;20020;-57
2023/03/20 00:47:16;;;;;;;18.75;15.70;;;;;;;8.81;84.67;101833.75;5122963;27;20019;-56
2023/03/20 00:49:46;;;;;;;21.25;16.42;;;;;;;8.64;84.43;101825.59;5099146;27;20481;-57
2023/03/20 00:52:18;;;;;;;20.45;15.50;;;;;;;8.78;84.15;101825.06;5133683;27;20033;-56
2023/03/20 00:54:44;;;;;;;17.13;15.32;;;;;;;8.61;84.47;101823.06;5133197;27;20086;-57
2023/03/20 00:57:21;;;;;;;21.75;16.67;;;;;;;8.62;84.75;101835.41;5113331;27;20034;-56
2023/03/20 00:59:54;;;;;;;20.75;16.27;;;;;;;8.53;84.78;101843.69;5124957;27;20051;-56
2023/03/20 01:02:22;;;;;;;21.38;16.30;;;;;;;8.40;85.34;101840.66;5140427;27;20031;-56
2023/03/20 01:04:47;;;;;;;24.05;17.33;;;;;;;8.33;85.48;101855.91;5132777;27;20482;-57
2023/03/20 01:07:15;;;;;;;19.73;16.65;;;;;;;8.28;85.94;101864.94;5133442;27;20034;-56
2023/03/20 01:09:41;;;;;;;23.77;18.50;;;;;;;8.23;85.42;101866.91;5133555;27;20018;-56
2023/03/20 01:12:09;;;;;;;22.80;18.48;;;;;;;8.20;86.28;101884.63;5133374;27;20456;-57
2023/03/20 01:14:34;;;;;;;22.15;18.35;;;;;;;8.18;85.46;101890.94;5132520;27;20034;-57
2023/03/20 01:17:00;;;;;;;21.95;18.48;;;;;;;8.09;85.88;101884.19;5132998;27;20018;-57
2023/03/20 01:19:26;;;;;;;28.42;18.63;;;;;;;8.09;85.82;101870.03;5122619;27;20109;-57
2023/03/20 01:21:51;;;;;;;25.42;18.75;;;;;;;8.03;85.44;101857.91;5153800;27;20043;-57
2023/03/20 01:24:17;;;;;;;23.15;19.05;;;;;;;8.00;85.41;101841.25;5148875;27;20102;-56
2023/03/20 01:26:46;;;;;;;23.13;20.30;;;;;;;8.05;85.20;101848.09;5112791;27;20022;-56
2023/03/20 01:29:18;;;;;;;27.42;19.33;;;;;;;8.05;85.58;101855.19;5131094;27;20027;-56
2023/03/20 01:31:43;;;;;;;25.20;20.27;;;;;;;7.96;84.89;101854.59;5132590;27;20058;-57
2023/03/20 01:34:10;;;;;;;25.27;19.55;;;;;;;7.99;85.56;101876.59;5114596;27;20111;-56
2023/03/20 01:36:37;;;;;;;25.08;19.50;;;;;;;7.97;85.41;101859.00;5133563;27;20023;-56
2023/03/20 01:39:03;;;;;;;23.33;19.65;;;;;;;7.87;85.58;101862.88;5114265;27;20422;-57
2023/03/20 01:41:29;;;;;;;21.67;19.25;;;;;;;7.83;85.66;101858.63;5131630;27;20057;-56
2023/03/20 01:43:54;;;;;;;25.52;19.67;;;;;;;7.91;85.33;101856.56;5131296;27;20031;-57
2023/03/20 01:46:27;;;;;;;22.48;20.08;;;;;;;7.91;85.83;101860.97;5128650;27;20041;-57
2023/03/20 01:48:52;;;;;;;26.52;21.13;;;;;;;7.88;85.72;101850.50;5121847;27;20026;-58
2023/03/20 01:51:22;;;;;;;24.95;20.52;;;;;;;7.98;85.28;101857.19;5131568;27;20098;-57
2023/03/20 01:54:00;;;;;;;25.90;20.23;;;;;;;7.95;85.36;101855.53;5127484;28;20023;-57
2023/03/20 01:56:29;;;;;;;25.83;20.10;;;;;;;7.92;85.34;101852.13;5120631;28;20058;-57
2023/03/20 01:59:03;;;;;;;26.17;21.00;;;;;;;7.81;85.77;101849.00;5114667;27;20492;-57
2023/03/20 02:01:29;;;;;;;25.17;20.17;;;;;;;7.90;85.53;101849.50;5136031;27;20026;-57
2023/03/20 02:03:57;;;;;;;26.55;20.40;;;;;;;7.71;85.65;101843.16;5134994;27;20038;-57
2023/03/20 02:06:25;;;;;;;23.35;20.77;;;;;;;7.85;85.69;101853.25;5136616;27;20067;-57
2023/03/20 02:08:51;;;;;;;24.48;20.25;;;;;;;7.74;85.87;101843.06;5133996;27;20023;-57
2023/03/20 02:11:26;;;;;;;28.02;21.83;;;;;;;7.84;85.98;101857.69;5132659;27;20051;-57
2023/03/20 02:13:55;;;;;;;25.88;21.00;;;;;;;7.80;85.75;101868.47;5125766;27;20440;-57
2023/03/20 02:16:21;;;;;;;25.05;21.85;;;;;;;7.59;85.73;101867.38;5135796;27;20474;-57
2023/03/20 02:18:50;;;;;;;25.13;21.23;;;;;;;7.66;86.21;101868.94;5136373;27;20035;-57
2023/03/20 02:21:43;;;;;;;24.52;21.80;;;;;;;7.58;87.09;101873.63;5128434;27;20043;-57
2023/03/20 02:24:08;;;;;;;28.55;22.05;;;;;;;7.59;86.97;101873.56;5103285;27;20035;-57
2023/03/20 02:26:56;;;;;;;27.05;22.75;;;;;;;7.58;86.92;101877.13;5136957;27;20035;-57
2023/03/20 02:29:41;;;;;;;27.55;21.85;;;;;;;7.48;87.71;101873.94;5117403;27;20038;-57
2023/03/20 02:32:45;;;;;;;27.00;22.95;;;;;;;7.60;86.84;101885.88;5115984;28;20028;-57
2023/03/20 02:35:42;;;;;;;27.30;23.38;;;;;;;7.59;87.33;101884.16;5033009;28;20473;-57
2023/03/20 02:38:16;;;;;;;28.15;23.98;;;;;;;7.42;87.27;101863.56;5033289;28;20057;-57
2023/03/20 02:41:04;;;;;;;27.67;23.65;;;;;;;7.30;87.65;101863.97;5076310;28;20091;-57
2023/03/20 02:43:58;;;;;;;25.98;23.13;;;;;;;7.51;87.48;101854.44;5113340;27;20020;-57
2023/03/20 02:46:56;;;;;;;29.45;23.92;;;;;;;7.40;88.06;101859.22;5116008;27;20038;-57
2023/03/20 02:49:39;;;;;;;33.00;24.77;;;;;;;7.29;88.32;101856.91;5115684;27;20126;-57
2023/03/20 02:52:35;;;;;;;30.80;24.63;;;;;;;7.40;88.12;101846.84;5126222;27;20080;-57
2023/03/20 02:55:06;;;;;;;26.95;24.15;;;;;;;7.45;87.66;101846.72;5135803;27;20027;-57
2023/03/20 02:58:10;;;;;;;29.48;25.33;;;;;;;7.37;88.33;101844.31;5132367;27;20027;-57
2023/03/20 03:00:51;;;;;;;33.05;24.83;;;;;;;7.27;88.25;101849.06;5051143;28;20045;-58
2023/03/20 03:03:23;;;;;;;32.95;25.25;;;;;;;7.29;88.28;101841.03;5032572;28;20067;-57
2023/03/20 03:05:55;;;;;;;31.52;24.85;;;;;;;7.25;88.33;101836.78;5092398;27;20035;-57
2023/03/20 03:08:24;;;;;;;31.00;25.73;;;;;;;7.25;88.35;101840.28;5135958;27;20047;-58
2023/03/20 03:10:57;;;;;;;32.28;25.90;;;;;;;7.25;88.42;101839.44;5135649;27;20423;-58
2023/03/20 03:13:28;;;;;;;31.80;25.92;;;;;;;7.24;88.75;101833.28;5135374;27;20015;-57
2023/03/20 03:16:01;;;;;;;29.70;24.70;;;;;;;7.19;88.69;101834.34;5116850;27;20069;-56
2023/03/20 03:18:28;;;;;;;28.52;24.27;;;;;;;7.09;88.81;101815.28;5136088;27;20080;-57
2023/03/20 03:20:58;;;;;;;29.38;24.30;;;;;;;7.17;89.05;101813.22;5135198;27;20043;-56
2023/03/20 03:23:33;;;;;;;29.60;24.88;;;;;;;7.07;89.60;101810.94;5134681;27;20031;-57
2023/03/20 03:26:01;;;;;;;29.38;25.40;;;;;;;7.00;89.69;101813.78;5134403;27;20007;-57
2023/03/20 03:28:37;;;;;;;30.45;24.27;;;;;;;6.97;89.98;101805.06;5134979;27;20030;-57
2023/03/20 03:31:11;;;;;;;26.85;23.38;;;;;;;7.01;89.91;101810.22;5123877;27;20027;-57
2023/03/20 03:33:39;;;;;;;30.08;22.92;;;;;;;6.98;89.83;101820.03;5134584;27;20110;-57
2023/03/20 03:36:08;;;;;;;29.80;23.50;;;;;;;7.02;90.03;101814.59;5134304;27;20019;-57
2023/03/20 03:38:58;;;;;;;26.92;22.88;;;;;;;6.99;90.42;101812.03;5134480;27;20106;-57
2023/03/20 03:41:36;;;;;;;24.98;22.13;;;;;;;6.82;90.60;101804.69;5132974;27;20031;-57
2023/03/20 03:44:19;;;;;;;30.08;23.15;;;;;;;6.82;90.87;101807.31;5134327;27;20038;-57
2023/03/20 03:47:01;;;;;;;28.05;23.42;;;;;;;6.86;90.23;101799.28;5133929;27;20034;-57
2023/03/20 03:49:33;;;;;;;28.92;23.75;;;;;;;6.93;90.75;101806.09;5133807;27;20034;-56
2023/03/20 03:52:07;;;;;;;28.00;23.75;;;;;;;6.92;90.77;101799.09;5133496;27;20398;-57
2023/03/20 03:54:52;;;;;;;27.55;23.15;;;;;;;6.87;90.71;101793.94;5134906;27;20061;-57
2023/03/20 03:57:23;;;;;;;28.63;24.08;;;;;;;6.88;90.53;101798.28;5130009;27;20055;-57
2023/03/20 03:59:51;;;;;;;27.42;23.48;;;;;;;6.73;90.51;101789.09;5113761;28;20085;-57
2023/03/20 04:02:20;;;;;;;26.10;23.20;;;;;;;6.87;90.68;101798.38;5133494;27;20031;-58
2023/03/20 04:04:50;;;;;;;28.45;23.50;;;;;;;6.86;90.82;101794.00;5119352;27;20028;-57
2023/03/20 04:07:15;;;;;;;28.63;22.95;;;;;;;6.76;90.52;101775.75;5132894;27;20023;-57
2023/03/20 04:09:41;;;;;;;26.83;22.42;;;;;;;6.81;91.08;101788.84;5116980;27;20531;-57
2023/03/20 04:12:29;;;;;;;26.48;22.38;;;;;;;6.82;90.77;101780.00;5133403;27;20059;-57
2023/03/20 04:14:55;;;;;;;28.52;21.77;;;;;;;6.90;90.07;101783.25;5133048;27;20492;-57
2023/03/20 04:17:23;;;;;;;25.52;21.48;;;;;;;6.77;89.89;101785.44;5114790;27;20102;-57
2023/03/20 04:19:48;;;;;;;29.23;22.08;;;;;;;6.79;90.44;101786.28;5121929;27;20084;-57
2023/03/20 04:22:13;;;;;;;25.50;22.48;;;;;;;6.85;90.10;101781.69;5132516;27;20062;-57
2023/03/20 04:24:39;;;;;;;29.15;21.00;;;;;;;6.75;89.96;101776.69;5104642;27;20027;-57
2023/03/20 04:27:04;;;;;;;23.92;21.33;;;;;;;6.83;90.21;101787.03;5130883;27;20106;-57
2023/03/20 04:29:32;;;;;;;27.45;22.10;;;;;;;6.75;90.12;101783.75;5114896;27;20466;-57
2023/03/20 04:32:00;;;;;;;26.20;22.27;;;;;;;6.71;90.10;101785.63;5130438;27;20023;-57
2023/03/20 04:34:25;;;;;;;28.67;22.63;;;;;;;6.73;90.31;101782.94;5133692;27;20023;-58
2023/03/20 04:36:51;;;;;;;26.85;22.25;;;;;;;6.82;89.95;101788.81;5132652;27;20015;-57
2023/03/20 04:39:16;;;;;;;24.80;22.13;;;;;;;6.79;89.92;101780.09;5132391;27;20355;-57
2023/03/20 04:41:42;;;;;;;26.95;22.02;;;;;;;6.74;89.57;101780.25;5131316;27;20394;-57
2023/03/20 04:44:07;;;;;;;29.30;22.70;;;;;;;6.70;89.40;101780.38;5114984;27;20156;-57
2023/03/20 04:46:33;;;;;;;27.27;23.08;;;;;;;6.66;89.77;101782.28;5133032;27;20050;-57
2023/03/20 04:48:58;;;;;;;24.40;21.52;;;;;;;6.63;90.33;101773.59;5133936;27;20027;-57
2023/03/20 04:51:24;;;;;;;24.67;21.15;;;;;;;6.57;90.06;101772.84;5113972;27;20011;-57
2023/03/20 04:53:49;;;;;;;25.15;22.52;;;;;;;6.59;90.20;101764.88;5132394;27;20041;-57
2023/03/20 04:56:15;;;;;;;27.10;22.20;;;;;;;6.58;90.60;101761.34;5114956;27;20431;-57
2023/03/20 04:58:40;;;;;;;26.25;21.85;;;;;;;6.58;90.77;101768.44;5130133;27;20374;-57
2023/03/20 05:01:06;;;;;;;28.25;21.50;;;;;;;6.45;90.58;101749.47;5133334;27;20011;-57
2023/03/20 05:03:32;;;;;;;27.13;21.90;;;;;;;6.51;90.63;101758.97;5133643;27;20102;-57
2023/03/20 05:05:58;;;;;;;25.63;21.73;;;;;;;6.62;90.44;101775.38;5114812;27;20023;-56
2023/03/20 05:08:23;;;;;;;28.63;22.30;;;;;;;6.66;90.75;101773.47;5133140;27;20462;-57
2023/03/20 05:10:49;;;;;;;29.77;21.23;;;;;;;6.47;91.02;101759.97;5133381;27;20042;-56
2023/03/20 05:13:14;;;;;;;27.45;21.50;;;;;;;6.67;90.54;101768.13;5133428;27;20034;-56
2023/03/20 05:15:39;;;;;;;26.30;21.45;;;;;;;6.64;90.87;101768.22;5134087;27;20492;-56
2023/03/20 05:18:06;;;;;;;26.25;21.02;;;;;;;6.54;90.86;101765.03;5115043;27;20105;-56
2023/03/20 05:20:31;;;;;;;23.08;20.45;;;;;;;6.54;90.90;101761.53;5110743;27;20031;-56
2023/03/20 05:22:59;;;;;;;26.73;20.83;;;;;;;6.51;90.84;101754.56;5132636;27;20046;-57
2023/03/20 05:25:25;;;;;;;31.65;21.17;;;;;;;6.56;91.22;101760.56;5132973;27;20035;-56
2023/03/20 05:27:50;;;;;;;28.63;21.02;;;;;;;6.59;91.12;101762.25;5129425;27;20123;-56
2023/03/20 05:30:16;;;;;;;24.83;20.52;;;;;;;6.57;91.30;101753.50;5132397;27;20562;-56
2023/03/20 05:32:42;;;;;;;26.90;20.27;;;;;;;6.58;91.28;101757.84;5133286;27;20051;-56
2023/03/20 05:35:08;;;;;;;26.88;21.73;;;;;;;6.62;91.26;101761.25;5132538;27;20538;-57
2023/03/20 05:37:34;;;;;;;23.75;19.13;;;;;;;6.56;91.08;101757.91;5113418;27;20027;-56
2023/03/20 05:39:59;;;;;;;27.50;20.25;;;;;;;6.64;90.84;101749.72;5130529;27;20026;-57
2023/03/20 05:42:25;;;;;;;25.85;19.17;;;;;;;6.56;91.06;101752.63;5129412;27;20054;-56
2023/03/20 05:44:53;;;;;;;25.05;19.00;;;;;;;6.52;91.17;101756.28;5132225;27;20031;-57
2023/03/20 05:47:18;;;;;;;22.75;18.70;;;;;;;6.58;91.37;101756.06;5114261;28;20377;-57
2023/03/20 05:49:43;;;;;;;26.33;19.30;;;;;;;6.56;90.97;101757.06;5114353;28;20015;-57
2023/03/20 05:52:09;;;;;;;24.30;18.90;;;;;;;6.53;91.35;101762.41;5133336;27;20099;-57
2023/03/20 05:54:34;;;;;;;26.33;19.67;;;;;;;6.52;91.56;101764.19;5119941;28;20019;-56
2023/03/20 05:57:00;;;;;;;22.00;19.00;;;;;;;6.50;91.57;101757.22;5115248;28;20103;-57
2023/03/20 05:59:27;;;;;;;29.58;20.35;;;;;;;6.62;91.67;101775.38;5127338;28;20029;-57
2023/03/20 06:01:53;;;;;;;24.17;19.15;;;;;;;6.62;91.70;101775.38;5130933;28;20019;-57
2023/03/20 06:04:18;;;;;;;22.48;19.27;;;;;;;6.67;91.17;101784.00;5113827;27;20091;-56
2023/03/20 06:06:43;;;;;;;24.95;18.67;;;;;;;6.66;91.47;101792.84;5125242;28;20055;-56
2023/03/20 06:09:09;;;;;;;25.90;19.08;;;;;;;6.56;91.43;101784.34;5113238;28;20034;-57
2023/03/20 06:11:34;;;;;;;25.42;19.58;;;;;;;6.67;91.24;101789.28;5131540;28;20046;-56
2023/03/20 06:14:02;;;;;;;25.65;18.48;;;;;;;6.69;91.37;101786.59;5113100;28;20080;-56
2023/03/20 06:16:28;;;;;;;23.38;18.77;;;;;;;6.62;91.40;101788.59;5131856;28;20031;-56
2023/03/20 06:18:53;;;;;;;24.38;18.48;;;;;;;6.58;91.23;101784.28;5132204;28;20195;-56
2023/03/20 06:21:18;;;;;;;21.92;17.90;;;;;;;6.66;91.44;101784.91;5131743;28;20146;-56
2023/03/20 06:23:44;;;;;;;27.20;19.25;;;;;;;6.62;91.17;101780.66;5132552;28;20500;-56
2023/03/20 06:26:10;;;;;;;26.73;18.25;;;;;;;6.74;90.62;101793.47;5127651;27;20019;-56
2023/03/20 06:28:38;;;;;;;25.00;17.60;;;;;;;6.71;91.25;101795.34;5125535;28;20020;-57
2023/03/20 06:31:08;;;;;;;24.98;18.05;;;;;;;6.75;91.94;101802.25;5131563;28;20008;-56
2023/03/20 06:33:36;;;;;;;;;;;;;;;6.94;90.73;101798.13;5132588;28;20027;-57
2023/03/20 06:36:03;;;;;;;24.52;18.10;;;;;;;6.86;90.89;101794.00;5131918;28;20344;-57
2023/03/20 06:38:28;;;;;;;24.55;17.75;;;;;;;6.80;90.92;101790.63;5132067;28;20110;-57
2023/03/20 06:40:54;;;;;;;21.08;18.08;;;;;;;6.81;90.59;101799.41;5113291;28;20115;-57
2023/03/20 06:43:22;;;;;;;23.60;17.70;;;;;;;6.85;89.70;101801.03;5114251;28;20110;-57
2023/03/20 06:45:47;;;;;;;29.25;18.77;;;;;;;6.79;89.94;101810.06;5133832;27;20030;-57
2023/03/20 06:48:13;;;;;;;25.08;16.80;;;;;;;6.78;90.14;101808.31;5116284;27;20031;-57
2023/03/20 06:50:38;;;;;;;21.55;17.23;;;;;;;6.83;89.96;101824.91;5135932;27;20015;-57
2023/03/20 06:53:04;;;;;;;23.63;16.85;;;;;;;6.81;90.38;101820.56;5117769;27;20027;-57
2023/03/20 06:55:30;;;;;;;22.30;16.20;;;;;;;6.90;89.73;101830.84;5117419;27;20025;-57
2023/03/20 06:57:55;;;;;;;24.92;18.02;;;;;;;6.94;89.26;101828.97;5129154;27;20024;-57
2023/03/20 07:00:21;;;;;;;28.52;17.83;;;;;;;6.92;89.66;101839.63;5129870;27;20035;-57
2023/03/20 07:02:49;;;;;;;23.27;18.33;;;;;;;6.91;89.38;101834.34;5133880;27;20034;-57
2023/03/20 07:05:14;;;;;;;23.15;17.27;;;;;;;6.91;89.61;101842.28;5133131;27;20118;-57
2023/03/20 07:07:40;;;;;;;24.20;17.20;;;;;;;6.84;90.03;101844.28;5135967;27;20549;-57
2023/03/20 07:10:06;;;;;;;26.23;17.45;;;;;;;6.79;89.37;101825.94;5116219;27;20015;-57
2023/03/20 07:12:32;;;;;;;29.08;17.95;;;;;;;6.98;89.78;101846.50;5134674;27;20110;-57
2023/03/20 07:14:57;;;;;;;26.15;17.10;;;;;;;7.01;89.38;101852.53;5115661;27;20029;-57
2023/03/20 07:17:23;;;;;;;24.35;16.67;;;;;;;7.01;88.80;101851.69;5135413;27;20050;-57
2023/03/20 07:19:48;;;;;;;28.65;18.08;;;;;;;7.08;89.08;101852.34;5134996;27;20122;-57
2023/03/20 07:22:23;;;;;;;27.80;17.65;;;;;;;7.05;88.79;101856.81;5104234;27;20047;-57
2023/03/20 07:24:49;;;;;;;24.58;17.98;;;;;;;7.01;88.56;101846.41;5135349;27;20110;-57
2023/03/20 07:27:15;;;;;;;26.27;17.88;;;;;;;7.02;88.45;101837.53;5135521;27;20447;-58
2023/03/20 07:29:40;;;;;;;27.20;17.90;;;;;;;7.12;89.00;101856.59;5116383;27;20023;-57
2023/03/20 07:32:06;;;;;;;21.98;16.80;;;;;;;7.11;87.84;101841.66;5115832;27;20064;-57
2023/03/20 07:34:31;;;;;;;26.70;17.70;;;;;;;7.18;88.83;101851.16;5133196;27;20027;-57
2023/03/20 07:36:57;;;;;;;28.40;18.02;;;;;;;7.23;87.37;101860.63;5135254;27;20019;-57
2023/03/20 07:39:22;;;;;;;22.33;17.20;;;;;;;7.21;87.51;101856.34;5130831;27;20076;-57
2023/03/20 07:41:48;;;;;;;26.70;18.48;;;;;;;7.17;87.41;101859.97;5129639;27;20034;-57
2023/03/20 07:44:18;;;;;;;26.08;16.58;;;;;;;7.22;87.54;101860.69;5131378;27;20103;-57
2023/03/20 07:46:45;;;;;;;32.72;17.70;;;;;;;7.23;86.52;101852.69;5134136;27;20015;-58
2023/03/20 07:49:12;;;;;;;26.15;17.63;;;;;;;7.30;87.32;101860.47;5128007;27;20382;-57
2023/03/20 07:51:38;;;;;;;22.45;16.98;;;;;;;7.29;86.40;101864.84;5115885;27;20030;-57
2023/03/20 07:54:04;;;;;;;25.77;17.98;;;;;;;7.36;85.98;101863.75;5134231;27;20027;-57
2023/03/20 07:56:29;;;;;;;24.17;16.88;;;;;;;7.26;86.76;101860.56;5115137;27;20490;-57
2023/03/20 07:58:54;;;;;;;24.27;16.42;;;;;;;7.32;86.22;101861.25;5132539;27;20466;-57
2023/03/20 08:01:20;;;;;;;29.55;17.42;;;;;;;7.37;85.62;101861.97;5133488;27;20042;-57
2023/03/20 08:03:46;;;;;;;30.35;16.67;;;;;;;7.28;86.08;101860.50;5133838;27;20023;-57
2023/03/20 08:06:11;;;;;;;25.92;16.20;;;;;;;7.27;85.83;101856.13;5133229;27;20026;-57
2023/03/20 08:08:37;;;;;;;26.98;16.25;;;;;;;7.34;86.03;101859.44;5128520;27;20031;-57
2023/03/20 08:11:02;;;;;;;22.70;16.17;;;;;;;7.42;86.20;101862.69;5133577;27;20034;-57
2023/03/20 08:13:28;;;;;;;24.60;16.25;;;;;;;7.37;85.46;101867.25;5131710;27;20390;-57
2023/03/20 08:15:55;;;;;;;23.25;16.38;;;;;;;7.42;85.76;101867.97;5133110;27;20152;-57
2023/03/20 08:18:21;;;;;;;24.92;15.65;;;;;;;7.38;84.74;101848.69;5105257;27;20537;-57
2023/03/20 08:20:49;;;;;;;23.20;15.93;;;;;;;7.41;84.81;101859.19;5115082;27;20116;-57
2023/03/20 08:23:15;;;;;;;25.75;15.90;;;;;;;7.43;85.02;101864.41;5133150;27;20047;-57
2023/03/20 08:25:40;;;;;;;25.02;15.93;;;;;;;7.34;84.41;101856.78;5130468;27;20509;-57
2023/03/20 08:28:06;;;;;;;23.23;16.08;;;;;;;7.39;84.71;101860.16;5133535;27;20104;-57
2023/03/20 08:30:31;;;;;;;24.58;15.82;;;;;;;7.51;84.99;101857.09;5109406;27;20027;-57
2023/03/20 08:32:57;;;;;;;24.45;16.02;;;;;;;7.48;84.39;101868.63;5112608;27;20397;-57
2023/03/20 08:35:23;;;;;;;21.55;15.18;;;;;;;7.53;84.81;101857.00;5105077;27;20031;-57
2023/03/20 08:37:49;;;;;;;20.98;15.50;;;;;;;7.51;84.56;101862.38;5133422;27;20098;-57
2023/03/20 08:40:14;;;;;;;21.13;13.60;;;;;;;7.58;84.68;101866.53;5138839;27;20030;-58
2023/03/20 08:42:42;;;;;;;24.08;15.38;;;;;;;7.59;84.71;101868.28;5131469;27;20034;-57
2023/03/20 08:45:08;;;;;;;22.02;16.17;;;;;;;7.58;84.89;101853.28;5111876;27;20496;-57
2023/03/20 08:47:33;;;;;;;26.20;14.82;;;;;;;7.72;84.62;101869.56;5132735;27;20032;-57
2023/03/20 08:49:59;;;;;;;25.42;14.55;;;;;;;7.73;84.58;101865.13;5132845;27;20106;-57
2023/03/20 08:52:26;;;;;;;21.15;14.30;;;;;;;7.74;84.14;101861.59;5133129;27;20050;-57
2023/03/20 08:54:51;;;;;;;25.55;16.17;;;;;;;7.75;84.19;101865.97;5118164;27;20035;-57
2023/03/20 08:57:17;;;;;;;28.15;15.63;;;;;;;7.71;84.18;101859.91;5132798;27;20084;-57
2023/03/20 08:59:42;;;;;;;22.75;14.30;;;;;;;7.71;84.25;101864.34;5128350;27;20027;-57
2023/03/20 09:02:10;;;;;;;25.83;15.00;;;;;;;7.73;84.21;101857.19;5129497;27;20064;-57
2023/03/20 09:04:35;;;;;;;23.38;14.85;;;;;;;7.67;84.63;101860.06;5133141;27;20027;-57
2023/03/20 09:07:01;;;;;;;25.63;13.85;;;;;;;7.63;84.55;101847.84;5132787;27;20030;-57
2023/03/20 09:09:28;;;;;;;21.52;14.43;;;;;;;7.68;84.83;101867.97;5110657;27;20023;-57
2023/03/20 09:11:57;;;;;;;24.55;15.02;;;;;;;7.70;84.68;101865.25;5132203;27;20155;-57
2023/03/20 09:14:24;;;;;;;21.02;14.20;;;;;;;7.62;84.40;101862.88;5113624;27;20404;-57
2023/03/20 09:16:50;;;;;;;25.52;15.63;;;;;;;7.68;84.35;101860.03;5114008;27;20022;-57
2023/03/20 09:19:16;;;;;;;26.77;15.75;;;;;;;7.59;85.82;101873.56;5131518;27;20473;-57
2023/03/20 09:21:42;;;;;;;22.65;15.52;;;;;;;7.50;87.29;101879.19;5127848;27;20039;-57
2023/03/20 09:24:08;;;;;;;29.00;15.82;;;;;;;7.45;88.59;101887.28;5112111;27;20087;-57
2023/03/20 09:26:33;;;;;;;28.42;14.55;;;;;;;7.32;88.52;101872.69;5132260;27;20034;-57
2023/03/20 09:29:01;;;;;;;24.52;15.07;;;;;;;7.38;91.29;101875.16;5130786;27;20056;-57
2023/03/20 09:31:27;;;;;;;22.92;15.65;;;;;;;7.32;90.93;101882.41;5119445;27;20023;-57
2023/03/20 09:33:52;;;;;;;22.10;14.38;;;;;;;7.26;92.04;101875.53;5110187;27;20466;-57
2023/03/20 09:36:18;;;;;;;26.50;15.20;;;;;;;7.30;92.75;101884.28;5128301;27;20076;-57
2023/03/20 09:38:43;;;;;;;23.80;14.68;;;;;;;7.30;93.42;101881.63;5130491;27;20454;-57
2023/03/20 09:41:22;;;;;;;23.65;14.90;;;;;;;7.40;94.27;101877.75;5131867;27;20493;-58
2023/03/20 09:43:47;;;;;;;25.63;14.50;;;;;;;7.42;93.58;101881.22;5132017;27;20106;-57
2023/03/20 09:46:24;;;;;;;27.80;15.77;;;;;;;7.41;94.25;101879.47;5131867;27;20434;-58
2023/03/20 09:48:55;;;;;;;23.73;15.25;;;;;;;7.36;94.46;101884.94;5132312;27;20470;-57
2023/03/20 09:51:50;;;;;;;24.23;16.25;;;;;;;7.37;95.21;101884.00;5123593;27;20027;-57
2023/03/20 09:54:35;;;;;;;22.50;15.63;;;;;;;7.44;95.75;101872.31;5106425;28;20027;-57
2023/03/20 09:57:02;;;;;;;21.52;15.18;;;;;;;7.35;94.65;101864.66;5114591;27;20046;-57
2023/03/20 09:59:31;;;;;;;25.25;14.38;;;;;;;7.33;94.75;101876.22;5098405;28;20026;-57
2023/03/20 10:02:03;;;;;;;21.40;14.43;;;;;;;7.25;95.56;101869.41;5128957;27;20030;-57
2023/03/20 10:04:31;;;;;;;25.33;14.82;;;;;;;7.29;96.07;101870.16;5117220;27;20446;-57
2023/03/20 10:06:57;;;;;;;22.98;14.68;;;;;;;7.17;95.77;101860.84;5130107;27;20603;-57
2023/03/20 10:09:30;;;;;;;20.23;13.98;;;;;;;7.22;95.41;101873.94;5105592;28;20114;-57
2023/03/20 10:12:37;;;;;;;22.20;14.57;;;;;;;7.26;96.22;101852.63;5126906;27;20034;-57
2023/03/20 10:15:32;;;;;;;23.10;14.18;;;;;;;7.43;96.72;101867.91;5111681;27;20117;-57
2023/03/20 10:18:04;;;;;;;24.13;14.27;;;;;;;7.36;95.76;101865.53;5113670;27;20126;-57
2023/03/20 10:20:34;;;;;;;19.73;12.95;;;;;;;7.40;96.69;101856.56;5114505;27;20389;-57
2023/03/20 10:23:19;;;;;;;22.77;12.93;;;;;;;7.43;96.57;101865.28;5129144;27;20043;-57
2023/03/20 10:25:51;;;;;;;23.40;14.60;;;;;;;7.32;96.36;101858.59;5114976;27;20771;-57
2023/03/20 10:28:21;;;;;;;20.15;12.95;;;;;;;7.36;94.94;101857.59;5136085;27;20427;-57
2023/03/20 10:31:05;;;;;;;20.80;12.63;;;;;;;7.43;95.77;101853.81;5131443;27;20106;-57
2023/03/20 10:34:09;;;;;;;23.45;12.80;;;;;;;7.58;96.60;101847.13;5135840;27;20023;-58
2023/03/20 10:36:42;;;;;;;21.67;13.60;;;;;;;7.68;96.11;101851.22;5076241;27;20042;-57
2023/03/20 10:39:26;;;;;;;22.42;13.18;;;;;;;7.80;95.41;101848.13;5132332;27;20019;-56
2023/03/20 10:42:01;;;;;;;25.80;13.63;;;;;;;7.74;95.48;101843.06;5135368;27;20035;-58
2023/03/20 10:44:39;;;;;;;20.75;13.98;;;;;;;7.85;96.04;101850.59;5127108;27;20027;-57
2023/03/20 10:47:08;;;;;;;22.60;14.45;;;;;;;7.73;94.27;101843.94;5110485;27;20521;-57
2023/03/20 10:49:48;;;;;;;17.10;12.68;;;;;;;7.78;93.80;101847.31;5116223;27;20038;-57
2023/03/20 10:52:19;;;;;;;19.73;14.75;;;;;;;7.76;94.96;101848.28;5135686;27;20481;-57
2023/03/20 10:54:51;;;;;;;22.38;13.85;;;;;;;7.78;94.10;101844.66;5135346;27;20019;-57
2023/03/20 10:57:23;;;;;;;19.95;14.35;;;;;;;7.82;95.29;101840.97;5135482;27;20023;-57
2023/03/20 10:59:50;;;;;;;22.85;13.45;;;;;;;7.79;92.32;101856.13;5134571;27;20339;-57
2023/03/20 11:02:19;;;;;;;18.95;13.57;;;;;;;7.87;93.48;101854.06;5113507;27;20034;-57
2023/03/20 11:04:45;;;;;;;24.13;14.67;;;;;;;7.93;93.01;101840.59;5132648;27;20027;-57
2023/03/20 11:07:10;;;;;;;23.45;14.48;;;;;;;7.94;93.22;101839.66;5133174;27;20482;-57
2023/03/20 11:09:36;;;;;;;26.17;14.15;;;;;;;7.97;94.03;101836.91;5133804;27;20106;-57
2023/03/20 11:12:03;;;;;;;22.17;13.02;;;;;;;8.00;93.12;101835.94;5134695;27;20688;-57
2023/03/20 11:14:36;;;;;;;20.20;12.68;;;;;;;7.91;91.90;101832.72;5116136;27;20538;-57
2023/03/20 11:17:03;;;;;;;20.25;13.25;;;;;;;7.86;93.74;101824.06;5134937;27;20038;-57
2023/03/20 11:19:33;;;;;;;23.40;13.50;;;;;;;7.89;93.69;101828.41;5130593;27;20469;-58
2023/03/20 11:22:06;;;;;;;20.98;13.75;;;;;;;7.96;93.43;101820.16;5105249;28;20088;-57
2023/03/20 11:24:44;;;;;;;19.75;13.07;;;;;;;8.03;93.64;101809.34;5093683;28;20024;-57
2023/03/20 11:27:25;;;;;;;19.98;12.93;;;;;;;8.05;92.33;101807.50;5086292;28;20066;-57
2023/03/20 11:29:51;;;;;;;25.30;12.95;;;;;;;8.07;92.84;101798.56;5086144;28;20055;-58